Miguel Suárez

Recruteur - Villarreal
4 Juin 2028
Dimanche
Processus

Personnalité

Adaptabilité (19) Ambition (11) Controverse (8) Loyauté (12) Pression (18) Professionnalisme (19) Sportivité (4) Tempérament (1)

Profil

Style d'entraînement Démocratique
Diplôme Continental Pro
Détermination 13
Gestion des joueurs 13
Motivation 14
Discipline 10
Satisfaction professionnelle
100%
Fatigue
0%
Rôle Recruteur
Salaire 95.6K p/s
Contrat 14.03.2029

Performance

Comportement Bon
Efficacité de l'entraînement
45%
Développement des joueurs
45%
Prévention des blessures
65%
Mise en place tactique
55%

Événements récents

A évalué un joueur maintenant
A observé un match maintenant
A évalué un joueur maintenant

Suivi en cours

56
Joueur Club Statut Capacité Confiance Observé Dernière observation Dernier vote
Sidiki Chérif Coventry City Actif 136 / 137 40% 1 03.06.2028 -
Jaydee Canvot Crystal Palace Actif 140 / 150 40% 2 02.06.2028 -
Finn Jeltsch VfB Stuttgart Actif 143 / 149 40% 1 02.06.2028 -
Afriyie Sulemana Hasaacas Actif 98 / 98 40% 1 02.06.2028 -
Pablo Santiago Castellón Rapport prêt 124 / 123 86% 1 01.06.2028 -
Matvey Bardachev Zenit Actif 107 / 108 40% 1 31.01.2028 -
Alexis Vossah Toulouse FC Actif 120 / 129 40% 1 31.01.2028 -
Lucas Camilo Puebla Actif 98 / 103 40% 1 31.01.2028 -
Pedro Zenit Actif 131 / 142 40% 1 17.01.2028 -
Bazoumana Touré Newcastle United Actif 145 / 152 40% 1 17.01.2028 -
Keny Arroyo Cruzeiro Actif 128 / 130 40% 1 17.01.2028 -
Bahmed Deuff FC Metz Actif 124 / 128 40% 1 04.01.2028 -
Victor Corona Santos Laguna Actif 109 / 114 40% 1 04.01.2028 -
Facundo Balatti Penarol Actif 103 / 110 40% 1 01.01.2028 -
Martín Jiménez Audax Italiano Actif 97 / 105 40% 1 01.01.2028 -
Diego Medina Cortulua Actif 109 / 119 40% 1 30.08.2027 -
Bautista Pereira Cerro Largo Actif 97 / 104 40% 1 30.08.2027 -
Mustapha Umar Kano Pillars Actif 87 / 98 40% 1 30.08.2027 -
Vadim Arutyunyan Dnepr Mogilev Actif 94 / 96 40% 1 23.08.2027 -
Adrian Skogmar Malmo FF Actif 120 / 120 40% 1 17.08.2027 -
Alessandro Ventre Vis Pesaro Actif 95 / 104 40% 1 17.08.2027 -
Wilmar Borja La Equidad Actif 100 / 107 40% 1 17.08.2027 -
Juan Morán Godoy Cruz Actif 105 / 114 40% 2 12.08.2027 -
Santiago Daniele Chacarita Juniors Actif 106 / 111 40% 1 02.08.2027 -
Amir Mohammad Razzaghinia Esteghlal Actif 111 / 114 40% 1 27.07.2027 -
Souza Tottenham Actif 129 / 133 40% 1 27.07.2027 -
Máximo Munarriz San Telmo Actif 95 / 99 40% 1 27.07.2027 -
Dylan Gorosito Boca Juniors Actif 109 / 118 40% 4 21.07.2027 -
Vitor Reis Manchester City Actif 137 / 141 40% 1 21.07.2027 -
Ollie Scarles West Ham United Actif 129 / 138 40% 6 20.07.2027 -
Lautaro Duarte Paris FC Actif 90 / 103 40% 1 20.07.2027 -
Sabil Hansen Randers Actif 115 / 116 40% 2 14.07.2027 -
Artem Biryukov Rodina Actif 88 / 94 40% 1 12.07.2027 -
Vasyl Bundash Metalurh Zaporizhzhia Actif 92 / 105 40% 1 08.07.2027 -
Simone Kosijer Triestina Actif 99 / 103 40% 1 06.07.2027 -
Axel Tape Bayer Leverkusen Actif 125 / 133 40% 2 05.07.2027 -
Andrés Cuenca Como Actif 110 / 114 40% 1 05.07.2027 -
Sebastián Caballero Barranquilla Actif 90 / 93 40% 1 30.06.2027 -
Lucio Cruceño Godoy Cruz Actif 96 / 106 40% 1 30.06.2027 -
Agustín Campos All Boys Actif 90 / 93 40% 1 29.06.2027 -
Valentino Massi Sarmiento Actif 99 / 108 40% 1 25.06.2027 -
Ignacio Alegre Penarol Actif 89 / 96 40% 1 24.06.2027 -
Kike Barja Osasuna Actif 137 / 128 79% 1 21.06.2027 Approuver
Gonçalo Sousa Porto Actif 117 / 122 40% 1 01.06.2027 -
Honest Ahanor Fiorentina Actif 132 / 134 40% 1 31.01.2027 -
Halam Loboa Osasuna Actif 117 / 128 40% 1 28.01.2027 -
Elie N'Gatta Sochaux Actif 98 / 99 40% 1 20.01.2027 -
Ignacio Perruzzi San Lorenzo Actif 121 / 127 40% 2 10.01.2027 -
T-Jay Parfitt Colchester United Actif 87 / 98 40% 1 06.01.2027 -
Bobby Clark Derby County Actif 125 / 127 40% 1 05.01.2027 -
Darío Ramírez Real Sociedad Actif 96 / 99 67% 1 02.01.2027 Refuser
Mohamadou Kanté West Ham United Actif 115 / 118 40% 1 02.01.2027 -
Javier Mena Deportivo Pereira Actif 98 / 110 40% 1 31.08.2026 -
Alejo Miro Patronato Actif 92 / 104 40% 1 18.08.2026 -
Luca Regiardo Newell's Old Boys Actif 102 / 111 40% 1 18.08.2026 -
Santiago Fernández Talleres Actif 112 / 127 40% 1 01.08.2026 -